createdAt,value
2022-12-03T00:01:01.299Z,70.89
2022-12-03T00:04:02.974Z,71.41
2022-12-03T00:07:04.533Z,70.91
2022-12-03T00:10:06.943Z,71.12
2022-12-03T00:13:08.282Z,70.92
2022-12-03T00:16:09.803Z,70.52
2022-12-03T00:19:11.409Z,70.78
2022-12-03T00:22:13.000Z,71.34
2022-12-03T00:25:14.631Z,71.05
2022-12-03T00:28:16.051Z,70.90
2022-12-03T00:31:17.618Z,70.88
2022-12-03T00:34:19.139Z,70.22
2022-12-03T00:37:20.619Z,70.42
2022-12-03T00:40:22.027Z,71.61
2022-12-03T00:43:23.464Z,71.48
2022-12-03T00:46:25.554Z,70.98
2022-12-03T00:49:27.209Z,70.32
2022-12-03T00:52:28.607Z,71.02
2022-12-03T00:55:30.026Z,71.53
2022-12-03T00:58:31.552Z,72.19
2022-12-03T01:01:33.018Z,71.68
2022-12-03T01:04:34.817Z,72.39
2022-12-03T01:07:36.426Z,71.24
2022-12-03T01:10:37.902Z,70.95
2022-12-03T01:13:39.345Z,70.25
2022-12-03T01:16:41.364Z,70.78
2022-12-03T01:19:48.029Z,70.55
2022-12-03T01:22:49.947Z,70.27
2022-12-03T01:25:51.389Z,69.66
2022-12-03T01:28:52.836Z,70.32
2022-12-03T01:32:13.393Z,71.19
2022-12-03T01:35:14.864Z,69.92
2022-12-03T01:38:16.289Z,70.00
2022-12-03T01:41:18.870Z,71.37
2022-12-03T01:44:27.187Z,71.31
2022-12-03T01:47:35.338Z,71.23
2022-12-03T01:50:38.423Z,70.19
2022-12-03T01:53:40.143Z,69.81
2022-12-03T01:56:41.604Z,69.97
2022-12-03T01:59:43.047Z,70.15
2022-12-03T02:02:45.301Z,69.76
2022-12-03T02:05:46.795Z,70.69
2022-12-03T02:08:49.031Z,69.44
2022-12-03T02:11:50.770Z,69.46
2022-12-03T02:14:53.665Z,69.62
2022-12-03T02:17:55.807Z,70.35
2022-12-03T02:21:21.493Z,70.13
2022-12-03T02:24:33.084Z,69.26
2022-12-03T02:27:34.637Z,69.70
2022-12-03T02:30:36.937Z,70.29
2022-12-03T02:33:38.406Z,69.30
2022-12-03T02:36:39.976Z,70.34
2022-12-03T02:39:46.866Z,70.16
2022-12-03T02:42:50.948Z,69.84
2022-12-03T02:45:56.386Z,69.09
2022-12-03T02:48:58.834Z,69.05
2022-12-03T02:52:00.265Z,69.43
2022-12-03T02:55:04.374Z,69.55
2022-12-03T02:58:06.615Z,69.31
2022-12-03T03:01:09.206Z,69.75
2022-12-03T03:04:10.857Z,69.55
2022-12-03T03:07:12.726Z,69.60
2022-12-03T03:10:16.344Z,69.03
2022-12-03T03:13:19.075Z,69.40
2022-12-03T03:16:20.826Z,68.24
2022-12-03T03:19:26.095Z,69.90
2022-12-03T03:22:35.415Z,70.44
2022-12-03T03:25:38.288Z,69.66
2022-12-03T03:28:46.610Z,70.00
2022-12-03T03:31:48.423Z,69.72
2022-12-03T03:34:50.190Z,69.29
2022-12-03T03:37:53.635Z,69.85
2022-12-03T03:40:57.257Z,70.59
2022-12-03T03:43:58.941Z,71.16
2022-12-03T03:47:00.597Z,69.84
2022-12-03T03:50:02.755Z,70.08
2022-12-03T03:53:05.035Z,70.10
2022-12-03T03:56:07.471Z,70.42
2022-12-03T03:59:09.020Z,69.53
2022-12-03T04:02:19.583Z,69.14
2022-12-03T04:05:23.177Z,70.93
2022-12-03T04:08:24.723Z,71.41
2022-12-03T04:11:44.902Z,70.69
2022-12-03T04:14:46.411Z,70.24
2022-12-03T04:18:07.829Z,70.14
2022-12-03T04:21:39.674Z,69.64
2022-12-03T04:24:41.111Z,70.13
2022-12-03T04:28:01.605Z,69.64
2022-12-03T04:31:25.657Z,69.38
2022-12-03T04:34:45.801Z,69.75
2022-12-03T04:37:47.259Z,70.14
2022-12-03T04:41:00.766Z,69.91
2022-12-03T04:44:33.174Z,69.12
2022-12-03T04:47:39.782Z,69.17
2022-12-03T04:50:41.616Z,69.90
2022-12-03T04:53:46.182Z,69.88
2022-12-03T04:56:47.907Z,70.74
2022-12-03T04:59:49.377Z,70.83
2022-12-03T05:02:51.013Z,71.82
2022-12-03T05:05:52.509Z,71.88
2022-12-03T05:08:53.986Z,70.32
2022-12-03T05:11:55.440Z,70.56
2022-12-03T05:14:56.993Z,70.99
2022-12-03T05:17:58.467Z,71.14
2022-12-03T05:20:59.882Z,71.08
2022-12-03T05:24:01.692Z,71.03
2022-12-03T05:27:03.279Z,71.03
2022-12-03T05:30:05.369Z,70.65
2022-12-03T05:33:06.792Z,71.11
2022-12-03T05:36:09.053Z,72.40
2022-12-03T05:39:10.516Z,71.25
2022-12-03T05:42:30.565Z,71.19
2022-12-03T05:45:37.637Z,71.28
2022-12-03T05:48:39.053Z,71.18
2022-12-03T05:51:40.491Z,71.91
2022-12-03T05:54:42.070Z,70.96
2022-12-03T05:57:43.743Z,70.40
2022-12-03T06:00:45.193Z,71.04
2022-12-03T06:03:46.734Z,70.25
2022-12-03T06:06:48.269Z,70.14
2022-12-03T06:09:49.695Z,70.29
2022-12-03T06:12:51.521Z,70.55
2022-12-03T06:15:53.012Z,72.15
2022-12-03T06:18:54.498Z,72.03
2022-12-03T06:21:55.959Z,71.99
2022-12-03T06:25:02.055Z,72.13
2022-12-03T06:28:07.359Z,70.54
2022-12-03T06:31:08.792Z,72.13
2022-12-03T06:34:10.318Z,71.21
2022-12-03T06:37:11.731Z,71.71
2022-12-03T06:40:13.586Z,71.37
2022-12-03T06:43:15.303Z,71.41
2022-12-03T06:46:16.761Z,70.31
2022-12-03T06:49:18.262Z,70.37
2022-12-03T06:52:19.794Z,70.49
2022-12-03T06:55:21.205Z,72.79
2022-12-03T06:58:22.639Z,74.26
2022-12-03T07:01:24.635Z,73.21
2022-12-03T07:04:26.120Z,73.07
2022-12-03T07:07:27.626Z,74.08
2022-12-03T07:10:29.215Z,73.02
2022-12-03T07:13:30.886Z,72.14
2022-12-03T07:16:32.559Z,71.94
2022-12-03T07:19:34.056Z,72.36
2022-12-03T07:22:35.586Z,71.74
2022-12-03T07:25:37.375Z,70.90
2022-12-03T07:28:38.786Z,71.21
2022-12-03T07:31:40.296Z,71.21
2022-12-03T07:34:41.846Z,70.83
2022-12-03T07:37:43.267Z,70.58
2022-12-03T07:40:45.171Z,70.61
2022-12-03T07:43:46.656Z,70.58
2022-12-03T07:46:48.229Z,71.29
2022-12-03T07:49:49.717Z,70.87
2022-12-03T07:52:51.143Z,71.49
2022-12-03T07:55:53.008Z,71.16
2022-12-03T07:58:54.547Z,70.52
2022-12-03T08:01:56.120Z,70.11
2022-12-03T08:04:57.641Z,70.60
2022-12-03T08:07:59.151Z,70.59
2022-12-03T08:11:01.937Z,70.95
2022-12-03T08:14:18.605Z,71.10
2022-12-03T08:17:21.613Z,71.00
2022-12-03T08:20:31.522Z,71.41
2022-12-03T08:23:34.521Z,71.73
2022-12-03T08:26:36.074Z,71.82
2022-12-03T08:29:37.490Z,71.36
2022-12-03T08:32:38.892Z,71.07
2022-12-03T08:35:44.253Z,71.05
2022-12-03T08:38:50.917Z,70.03
2022-12-03T08:42:14.977Z,69.96
2022-12-03T08:45:39.819Z,69.69
2022-12-03T08:48:47.081Z,69.91
2022-12-03T08:51:55.979Z,69.18
2022-12-03T08:54:57.658Z,69.72
2022-12-03T08:57:59.533Z,70.47
2022-12-03T09:01:07.106Z,70.31
2022-12-03T09:04:24.070Z,70.16
2022-12-03T09:07:25.610Z,69.80
2022-12-03T09:10:27.109Z,69.83
2022-12-03T09:13:29.056Z,70.35
2022-12-03T09:16:30.677Z,69.91
2022-12-03T09:19:32.435Z,68.45
2022-12-03T09:22:34.067Z,69.41
2022-12-03T09:25:35.524Z,70.28
2022-12-03T09:28:36.950Z,70.71
2022-12-03T09:31:38.456Z,70.81
2022-12-03T09:34:40.003Z,71.41
2022-12-03T09:37:41.419Z,71.01
2022-12-03T09:40:42.975Z,69.58
2022-12-03T09:44:03.500Z,69.42
2022-12-03T09:47:06.428Z,69.22
2022-12-03T09:50:13.646Z,69.64
2022-12-03T09:53:18.454Z,69.75
2022-12-03T09:56:22.724Z,70.21
2022-12-03T09:59:27.374Z,69.31
2022-12-03T10:02:30.554Z,69.72
2022-12-03T10:05:33.216Z,70.58
2022-12-03T10:08:34.681Z,71.59
2022-12-03T10:11:36.211Z,71.84
2022-12-03T10:14:37.643Z,70.91
2022-12-03T10:17:39.229Z,70.64
2022-12-03T10:20:40.650Z,70.36
2022-12-03T10:23:42.090Z,71.11
2022-12-03T10:26:45.729Z,70.99
2022-12-03T10:29:58.341Z,71.14
2022-12-03T10:33:14.347Z,70.24
2022-12-03T10:36:23.420Z,71.23
2022-12-03T10:39:24.880Z,70.68
2022-12-03T10:42:29.295Z,70.48
2022-12-03T10:45:30.756Z,70.24
2022-12-03T10:48:32.241Z,71.58
2022-12-03T10:51:33.919Z,70.89
2022-12-03T10:54:35.702Z,71.37
2022-12-03T10:57:40.002Z,71.59
2022-12-03T11:00:45.256Z,70.60
2022-12-03T11:03:47.765Z,71.31
2022-12-03T11:06:50.726Z,70.87
2022-12-03T11:09:58.821Z,69.21
2022-12-03T11:13:34.052Z,68.45
2022-12-03T11:16:41.646Z,68.19
2022-12-03T11:19:46.520Z,67.94
2022-12-03T11:22:49.692Z,67.25
2022-12-03T11:25:51.116Z,67.61
2022-12-03T11:28:55.178Z,67.28
2022-12-03T11:31:56.590Z,67.33
2022-12-03T11:34:58.189Z,67.82
2022-12-03T11:38:37.993Z,70.07
2022-12-03T11:41:39.470Z,69.38
2022-12-03T11:44:40.930Z,69.66
2022-12-03T11:47:46.914Z,68.41
2022-12-03T11:50:53.015Z,68.20
2022-12-03T11:53:57.652Z,68.34
2022-12-03T11:56:59.109Z,69.35
2022-12-03T12:00:22.259Z,68.73
2022-12-03T12:03:28.640Z,69.20
2022-12-03T12:06:42.496Z,69.26
2022-12-03T12:09:57.253Z,69.46
2022-12-03T12:12:58.930Z,69.07
2022-12-03T12:16:05.325Z,68.39
2022-12-03T12:19:33.036Z,67.85
2022-12-03T12:22:34.558Z,68.30
2022-12-03T12:25:39.082Z,68.23
2022-12-03T12:28:40.594Z,68.23
2022-12-03T12:31:42.158Z,69.06
2022-12-03T12:34:46.389Z,68.73
2022-12-03T12:37:55.009Z,69.15
2022-12-03T12:41:07.457Z,68.74
2022-12-03T12:44:13.977Z,68.20
2022-12-03T12:47:15.409Z,68.24
2022-12-03T12:50:18.388Z,68.22
2022-12-03T12:53:26.183Z,68.10
2022-12-03T12:56:30.887Z,67.25
2022-12-03T12:59:32.577Z,67.45
2022-12-03T13:02:43.129Z,67.29
2022-12-03T13:05:46.861Z,66.29
2022-12-03T13:08:50.256Z,66.64
2022-12-03T13:11:53.697Z,66.71
2022-12-03T13:14:58.285Z,66.51
2022-12-03T13:17:59.705Z,66.74
2022-12-03T13:21:24.546Z,66.63
2022-12-03T13:24:39.662Z,66.89
2022-12-03T13:27:41.058Z,66.69
2022-12-03T13:30:42.594Z,65.58
2022-12-03T13:33:44.030Z,65.80
2022-12-03T13:36:50.709Z,66.62
2022-12-03T13:39:57.803Z,66.33
2022-12-03T13:42:59.408Z,67.18
2022-12-03T13:46:01.255Z,66.04
2022-12-03T13:49:03.184Z,66.36
2022-12-03T13:52:12.738Z,67.35
2022-12-03T13:55:31.481Z,67.60
2022-12-03T13:58:32.879Z,66.67
2022-12-03T14:01:34.571Z,65.60
2022-12-03T14:04:36.142Z,66.02
2022-12-03T14:07:38.760Z,65.45
2022-12-03T14:10:40.357Z,65.57
2022-12-03T14:13:41.799Z,65.96
2022-12-03T14:16:43.305Z,65.67
2022-12-03T14:19:45.030Z,67.15
2022-12-03T14:22:46.475Z,67.36
2022-12-03T14:25:48.002Z,66.38
2022-12-03T14:28:49.418Z,66.49
2022-12-03T14:31:50.888Z,66.76
2022-12-03T14:34:52.395Z,66.21
2022-12-03T14:37:53.810Z,65.88
2022-12-03T14:40:55.220Z,66.63
2022-12-03T14:43:56.621Z,66.99
2022-12-03T14:46:58.078Z,66.63
2022-12-03T14:49:59.511Z,67.59
2022-12-03T14:53:00.926Z,67.33
2022-12-03T14:56:02.322Z,67.32
2022-12-03T14:59:03.774Z,67.65
2022-12-03T15:02:05.699Z,67.20
2022-12-03T15:05:07.500Z,68.33
2022-12-03T15:08:09.662Z,68.99
2022-12-03T15:11:11.771Z,68.40
2022-12-03T15:14:16.615Z,67.98
2022-12-03T15:17:25.378Z,68.43
2022-12-03T15:20:31.367Z,68.50
2022-12-03T15:23:32.904Z,68.65
2022-12-03T15:26:34.351Z,68.72
2022-12-03T15:29:35.892Z,68.24
2022-12-03T15:32:37.317Z,68.14
2022-12-03T15:35:41.186Z,68.36
2022-12-03T15:38:42.615Z,68.51
2022-12-03T15:41:44.081Z,68.66
2022-12-03T15:44:45.501Z,68.78
2022-12-03T15:47:46.942Z,68.43
2022-12-03T15:50:48.361Z,69.13
2022-12-03T15:53:49.923Z,68.58
2022-12-03T15:56:56.865Z,68.33
2022-12-03T15:59:58.995Z,68.04
2022-12-03T16:03:00.437Z,67.63
2022-12-03T16:06:19.533Z,67.98
2022-12-03T16:09:26.667Z,68.96
2022-12-03T16:12:29.059Z,68.79
2022-12-03T16:15:30.536Z,68.79
2022-12-03T16:18:32.154Z,68.84
2022-12-03T16:21:34.884Z,68.12
2022-12-03T16:24:36.329Z,67.87
2022-12-03T16:27:38.194Z,67.73
2022-12-03T16:30:39.803Z,68.02
2022-12-03T16:33:41.306Z,67.98
2022-12-03T16:36:42.777Z,68.08
2022-12-03T16:39:44.292Z,68.31
2022-12-03T16:42:45.803Z,68.55
2022-12-03T16:45:56.423Z,68.71
2022-12-03T16:48:58.654Z,68.50
2022-12-03T16:52:00.078Z,68.52
2022-12-03T16:55:01.794Z,69.29
2022-12-03T16:58:03.293Z,68.49
2022-12-03T17:01:05.144Z,68.02
2022-12-03T17:04:06.590Z,67.54
2022-12-03T17:07:08.022Z,67.83
2022-12-03T17:10:10.092Z,67.86
2022-12-03T17:13:11.750Z,67.73
2022-12-03T17:16:13.249Z,68.15
2022-12-03T17:19:15.109Z,68.03
2022-12-03T17:22:16.583Z,68.21
2022-12-03T17:25:18.087Z,68.47
2022-12-03T17:28:19.529Z,68.43
2022-12-03T17:31:21.058Z,68.07
2022-12-03T17:34:22.509Z,68.26
2022-12-03T17:37:23.937Z,68.73
2022-12-03T17:40:25.390Z,68.62
2022-12-03T17:43:26.835Z,69.14
2022-12-03T17:46:28.641Z,68.91
2022-12-03T17:49:31.873Z,68.39
2022-12-03T17:52:33.455Z,68.10
2022-12-03T17:55:41.277Z,68.65
2022-12-03T17:58:46.894Z,68.51
2022-12-03T18:01:50.591Z,68.18
2022-12-03T18:04:52.049Z,68.26
2022-12-03T18:07:53.612Z,68.42
2022-12-03T18:10:55.307Z,68.67
2022-12-03T18:13:56.787Z,68.27
2022-12-03T18:16:58.198Z,68.35
2022-12-03T18:20:00.416Z,68.47
2022-12-03T18:23:02.190Z,68.20
2022-12-03T18:26:04.436Z,68.29
2022-12-03T18:29:06.197Z,68.63
2022-12-03T18:32:27.182Z,68.75
2022-12-03T18:35:30.176Z,68.82
2022-12-03T18:38:33.689Z,68.72
2022-12-03T18:41:35.713Z,67.77
2022-12-03T18:44:37.250Z,68.01
2022-12-03T18:47:38.993Z,68.61
2022-12-03T18:50:41.043Z,68.31
2022-12-03T18:53:43.277Z,68.37
2022-12-03T18:56:44.697Z,68.99
2022-12-03T18:59:46.422Z,68.22
2022-12-03T19:03:02.980Z,67.88
2022-12-03T19:06:05.406Z,68.58
2022-12-03T19:09:07.202Z,68.38
2022-12-03T19:12:14.622Z,69.51
2022-12-03T19:15:16.998Z,68.63
2022-12-03T19:18:18.441Z,69.01
2022-12-03T19:21:19.925Z,69.23
2022-12-03T19:24:25.499Z,68.15
2022-12-03T19:27:29.746Z,67.79
2022-12-03T19:30:31.260Z,68.25
2022-12-03T19:33:33.987Z,67.87
2022-12-03T19:36:35.416Z,68.83
2022-12-03T19:39:36.937Z,68.68
2022-12-03T19:42:39.064Z,67.88
2022-12-03T19:45:41.250Z,68.66
2022-12-03T19:48:43.066Z,68.90
2022-12-03T19:51:44.494Z,69.14
2022-12-03T19:54:45.947Z,68.53
2022-12-03T19:57:47.645Z,68.98
2022-12-03T20:00:49.120Z,69.37
2022-12-03T20:03:53.169Z,68.97
2022-12-03T20:06:54.782Z,68.65
2022-12-03T20:09:56.599Z,68.94
2022-12-03T20:12:58.295Z,68.61
2022-12-03T20:16:07.234Z,68.57
2022-12-03T20:19:12.426Z,68.00
2022-12-03T20:22:13.845Z,68.47
2022-12-03T20:25:15.396Z,68.60
2022-12-03T20:28:16.934Z,68.95
2022-12-03T20:31:20.728Z,69.18
2022-12-03T20:34:22.233Z,69.56
2022-12-03T20:37:23.668Z,69.47
2022-12-03T20:40:25.244Z,69.73
2022-12-03T20:43:26.656Z,69.73
2022-12-03T20:46:30.248Z,69.16
2022-12-03T20:49:31.791Z,68.82
2022-12-03T20:52:33.242Z,68.62
2022-12-03T20:55:34.728Z,68.85
2022-12-03T20:58:36.543Z,69.32
2022-12-03T21:01:38.888Z,70.39
2022-12-03T21:04:40.322Z,70.01
2022-12-03T21:07:41.865Z,69.94
2022-12-03T21:10:46.458Z,69.80
2022-12-03T21:13:48.017Z,69.28
2022-12-03T21:17:08.032Z,69.34
2022-12-03T21:20:10.808Z,69.13
2022-12-03T21:23:12.800Z,69.27
2022-12-03T21:26:17.520Z,69.31
2022-12-03T21:29:19.056Z,68.88
2022-12-03T21:32:20.464Z,69.64
2022-12-03T21:35:21.933Z,69.45
2022-12-03T21:38:23.850Z,69.52
2022-12-03T21:41:25.703Z,69.30
2022-12-03T21:44:27.432Z,68.90
2022-12-03T21:47:33.445Z,69.69
2022-12-03T21:50:38.279Z,70.27
2022-12-03T21:53:43.498Z,70.29
2022-12-03T21:56:45.168Z,70.24
2022-12-03T21:59:46.636Z,71.03
2022-12-03T22:02:48.107Z,72.86
2022-12-03T22:05:50.078Z,72.86
2022-12-03T22:08:51.510Z,73.27
2022-12-03T22:11:55.322Z,74.33
2022-12-03T22:14:57.296Z,73.24
2022-12-03T22:17:58.809Z,71.83
2022-12-03T22:21:08.598Z,71.85
2022-12-03T22:24:10.409Z,70.96
2022-12-03T22:27:12.922Z,71.75
2022-12-03T22:30:14.538Z,71.80
2022-12-03T22:33:16.080Z,72.75
2022-12-03T22:36:21.401Z,71.46
2022-12-03T22:39:23.407Z,71.09
2022-12-03T22:42:24.835Z,72.55
2022-12-03T22:45:26.290Z,72.84
2022-12-03T22:48:28.223Z,72.36
2022-12-03T22:51:30.239Z,72.43
2022-12-03T22:54:31.750Z,72.98
2022-12-03T22:57:33.240Z,72.65
2022-12-03T23:00:38.734Z,71.53
2022-12-03T23:03:40.249Z,70.57
2022-12-03T23:06:43.419Z,69.67
2022-12-03T23:09:44.851Z,70.22
2022-12-03T23:12:46.328Z,71.48
2022-12-03T23:15:50.805Z,71.26
2022-12-03T23:18:52.350Z,70.95
2022-12-03T23:21:53.824Z,71.37
2022-12-03T23:24:55.291Z,70.75
2022-12-03T23:27:56.756Z,70.15
2022-12-03T23:30:58.646Z,69.78
2022-12-03T23:34:00.482Z,70.24
2022-12-03T23:37:01.971Z,70.34
2022-12-03T23:40:03.926Z,71.47
2022-12-03T23:43:05.352Z,71.88
2022-12-03T23:46:12.674Z,71.37
2022-12-03T23:49:14.164Z,70.31
2022-12-03T23:52:15.586Z,69.94
2022-12-03T23:55:17.280Z,69.75
2022-12-03T23:58:18.733Z,69.99
